Time,TemperatureF,DewpointF,PressureIn,WindDirection,WindDirectionDegrees,WindSpeedMPH,WindSpeedGustMPH,Humidity,HourlyPrecipIn,Conditions,Clouds,dailyrainin,SoftwareType,DateUTC
2013-06-29 00:08:00,61.2,60.6,29.47,ENE,67,0.0,-999.0,98,-99.99,,,0.00,Acu-Link.com,2013-06-29 04:08:00,
2013-06-29 00:23:00,60.6,60.0,29.48,NNE,22,0.0,-999.0,98,-99.99,,,0.00,Acu-Link.com,2013-06-29 04:23:00,
2013-06-29 00:39:00,61.0,60.7,29.47,NNE,22,0.0,-999.0,99,-99.99,,,0.00,Acu-Link.com,2013-06-29 04:39:00,
2013-06-29 00:54:00,61.2,60.9,29.47,NW,315,0.0,-999.0,99,-99.99,,,0.00,Acu-Link.com,2013-06-29 04:54:00,
2013-06-29 01:09:00,61.3,61.0,29.48,North,0,0.0,-999.0,99,-99.99,,,0.00,Acu-Link.com,2013-06-29 05:09:00,
2013-06-29 01:24:00,61.7,61.4,29.47,NW,315,0.0,-999.0,99,-99.99,,,0.00,Acu-Link.com,2013-06-29 05:24:00,
2013-06-29 01:39:00,61.9,61.6,29.47,NNW,337,0.0,-999.0,99,-99.99,,,0.00,Acu-Link.com,2013-06-29 05:39:00,
2013-06-29 01:54:00,62.1,61.8,29.46,NNE,22,0.0,-999.0,99,-99.99,,,0.00,Acu-Link.com,2013-06-29 05:54:00,
2013-06-29 02:10:00,61.7,61.4,29.46,NNE,22,0.0,-999.0,99,-99.99,,,0.00,Acu-Link.com,2013-06-29 06:10:00,
2013-06-29 02:25:00,61.7,61.4,29.46,NNW,337,0.0,-999.0,99,-99.99,,,0.00,Acu-Link.com,2013-06-29 06:25:00,
2013-06-29 02:40:00,61.7,61.4,29.47,NW,315,0.0,-999.0,99,-99.99,,,0.00,Acu-Link.com,2013-06-29 06:40:00,
2013-06-29 02:55:00,62.1,61.8,29.46,WNW,292,0.0,-999.0,99,-99.99,,,0.00,Acu-Link.com,2013-06-29 06:55:00,
2013-06-29 03:10:00,62.4,62.1,29.46,SSW,202,0.0,-999.0,99,-99.99,,,0.00,Acu-Link.com,2013-06-29 07:10:00,
2013-06-29 03:25:00,62.4,62.1,29.46,NW,315,0.0,-999.0,99,-99.99,,,0.00,Acu-Link.com,2013-06-29 07:25:00,
2013-06-29 03:40:00,62.6,62.3,29.46,NW,315,0.0,-999.0,99,-99.99,,,0.00,Acu-Link.com,2013-06-29 07:40:00,
2013-06-29 03:55:00,62.6,62.3,29.46,NNW,337,0.0,-999.0,99,-99.99,,,0.00,Acu-Link.com,2013-06-29 07:55:00,
2013-06-29 04:10:00,62.6,62.3,29.47,NW,315,0.0,-999.0,99,-99.99,,,0.00,Acu-Link.com,2013-06-29 08:10:00,
2013-06-29 04:26:00,62.6,62.3,29.46,NNW,337,0.0,-999.0,99,-99.99,,,0.00,Acu-Link.com,2013-06-29 08:26:00,
2013-06-29 04:41:00,62.8,62.5,29.46,NNW,337,0.0,-999.0,99,-99.99,,,0.00,Acu-Link.com,2013-06-29 08:41:00,
2013-06-29 04:56:00,63.0,62.7,29.47,NNW,337,0.0,-999.0,99,-99.99,,,0.00,Acu-Link.com,2013-06-29 08:56:00,
2013-06-29 05:11:00,63.0,62.7,29.47,NNE,22,0.0,-999.0,99,-99.99,,,0.00,Acu-Link.com,2013-06-29 09:11:00,
2013-06-29 05:26:00,62.8,62.5,29.47,NW,315,0.0,-999.0,99,-99.99,,,0.00,Acu-Link.com,2013-06-29 09:26:00,
2013-06-29 05:41:00,62.8,62.5,29.47,NNE,22,0.0,-999.0,99,-99.99,,,0.00,Acu-Link.com,2013-06-29 09:41:00,
2013-06-29 05:56:00,63.0,62.7,29.48,NE,45,1.1,-999.0,99,-99.99,,,0.00,Acu-Link.com,2013-06-29 09:56:00,
2013-06-29 06:11:00,63.0,62.7,29.48,NW,315,0.0,-999.0,99,-99.99,,,0.00,Acu-Link.com,2013-06-29 10:11:00,
2013-06-29 06:26:00,63.0,62.7,29.49,WNW,292,0.0,-999.0,99,-99.99,,,0.00,Acu-Link.com,2013-06-29 10:26:00,
2013-06-29 06:41:00,63.0,62.7,29.49,NNE,22,3.2,-999.0,99,-99.99,,,0.00,Acu-Link.com,2013-06-29 10:41:00,
2013-06-29 06:57:00,63.1,62.8,29.49,NE,45,0.0,-999.0,99,-99.99,,,0.00,Acu-Link.com,2013-06-29 10:57:00,
2013-06-29 07:12:00,63.7,63.4,29.49,NNE,22,0.0,-999.0,99,-99.99,,,0.00,Acu-Link.com,2013-06-29 11:12:00,
2013-06-29 07:27:00,64.0,63.1,29.50,North,0,2.2,-999.0,97,-99.99,,,0.00,Acu-Link.com,2013-06-29 11:27:00,
2013-06-29 07:42:00,64.2,62.7,29.50,NW,315,0.0,-999.0,95,-99.99,,,0.00,Acu-Link.com,2013-06-29 11:42:00,
2013-06-29 07:57:00,64.0,62.2,29.50,NW,315,2.2,-999.0,94,-99.99,,,0.00,Acu-Link.com,2013-06-29 11:57:00,
2013-06-29 08:12:00,64.9,62.8,29.51,NNE,22,0.0,-999.0,93,-99.99,,,0.00,Acu-Link.com,2013-06-29 12:12:00,
2013-06-29 08:27:00,65.7,62.7,29.51,North,0,3.2,-999.0,90,-99.99,,,0.00,Acu-Link.com,2013-06-29 12:27:00,
2013-06-29 08:42:00,66.2,62.2,29.52,North,0,2.2,-999.0,87,-99.99,,,0.00,Acu-Link.com,2013-06-29 12:42:00,
2013-06-29 08:57:00,66.9,62.6,29.51,NNW,337,5.3,-999.0,86,-99.99,,,0.00,Acu-Link.com,2013-06-29 12:57:00,
2013-06-29 09:13:00,68.2,62.8,29.52,North,0,4.7,-999.0,83,-99.99,,,0.00,Acu-Link.com,2013-06-29 13:13:00,
2013-06-29 09:28:00,68.9,62.5,29.52,SSE,157,2.7,-999.0,80,-99.99,,,0.00,Acu-Link.com,2013-06-29 13:28:00,
2013-06-29 09:43:00,68.5,61.7,29.53,NNE,22,4.7,-999.0,79,-99.99,,,0.00,Acu-Link.com,2013-06-29 13:43:00,
2013-06-29 09:58:00,66.6,60.9,29.52,NNE,22,4.7,-999.0,82,-99.99,,,0.00,Acu-Link.com,2013-06-29 13:58:00,
2013-06-29 10:13:00,66.7,60.3,29.53,NNE,22,3.2,-999.0,80,-99.99,,,0.00,Acu-Link.com,2013-06-29 14:13:00,
2013-06-29 10:28:00,67.1,60.7,29.53,East,90,2.2,-999.0,80,-99.99,,,0.00,Acu-Link.com,2013-06-29 14:28:00,
2013-06-29 10:43:00,68.0,60.5,29.53,NE,45,5.3,-999.0,77,-99.99,,,0.00,Acu-Link.com,2013-06-29 14:43:00,
2013-06-29 10:58:00,69.4,61.5,29.53,ESE,112,1.1,-999.0,76,-99.99,,,0.00,Acu-Link.com,2013-06-29 14:58:00,
2013-06-29 11:13:00,70.3,63.1,29.53,NE,45,5.3,-999.0,78,-99.99,,,0.00,Acu-Link.com,2013-06-29 15:13:00,
2013-06-29 11:29:00,71.1,62.4,29.54,NNE,22,4.7,-999.0,74,-99.99,,,0.00,Acu-Link.com,2013-06-29 15:29:00,
2013-06-29 11:44:00,72.1,63.3,29.54,NE,45,4.7,-999.0,74,-99.99,,,0.00,Acu-Link.com,2013-06-29 15:44:00,
2013-06-29 11:59:00,70.3,61.2,29.55,NNE,22,2.2,-999.0,73,-99.99,,,0.00,Acu-Link.com,2013-06-29 15:59:00,
2013-06-29 12:14:00,70.7,62.4,29.54,NNE,22,3.7,-999.0,75,-99.99,,,0.00,Acu-Link.com,2013-06-29 16:14:00,
2013-06-29 12:29:00,70.5,62.6,29.54,NE,45,7.3,-999.0,76,-99.99,,,0.00,Acu-Link.com,2013-06-29 16:29:00,
2013-06-29 12:44:00,71.6,63.2,29.54,NE,45,4.7,-999.0,75,-99.99,,,0.00,Acu-Link.com,2013-06-29 16:44:00,
2013-06-29 12:59:00,72.0,62.5,29.55,NNE,22,9.4,-999.0,72,-99.99,,,0.00,Acu-Link.com,2013-06-29 16:59:00,
2013-06-29 13:14:00,71.8,61.9,29.54,NE,45,5.3,-999.0,71,-99.99,,,0.00,Acu-Link.com,2013-06-29 17:14:00,
2013-06-29 13:29:00,71.8,62.3,29.54,NNE,22,8.9,-999.0,72,-99.99,,,0.00,Acu-Link.com,2013-06-29 17:29:00,
2013-06-29 13:45:00,71.6,62.1,29.54,ENE,67,6.8,-999.0,72,-99.99,,,0.00,Acu-Link.com,2013-06-29 17:45:00,
2013-06-29 14:00:00,72.3,63.1,29.54,NNE,22,7.8,-999.0,73,-99.99,,,0.00,Acu-Link.com,2013-06-29 18:00:00,
2013-06-29 14:15:00,71.4,61.5,29.55,ENE,67,5.8,-999.0,71,-99.99,,,0.00,Acu-Link.com,2013-06-29 18:15:00,
2013-06-29 14:30:00,72.1,62.6,29.55,NNE,22,2.7,-999.0,72,-99.99,,,0.00,Acu-Link.com,2013-06-29 18:30:00,
2013-06-29 14:45:00,71.1,61.6,29.54,NNE,22,3.2,-999.0,72,-99.99,,,0.00,Acu-Link.com,2013-06-29 18:45:00,
2013-06-29 15:00:00,73.2,62.8,29.55,NNE,22,4.2,-999.0,70,-99.99,,,0.00,Acu-Link.com,2013-06-29 19:00:00,
2013-06-29 15:15:00,72.9,62.1,29.55,ENE,67,3.7,-999.0,69,-99.99,,,0.00,Acu-Link.com,2013-06-29 19:15:00,
2013-06-29 15:30:00,72.5,61.7,29.55,NE,45,3.7,-999.0,69,-99.99,,,0.00,Acu-Link.com,2013-06-29 19:30:00,
2013-06-29 15:45:00,70.9,61.0,29.56,ESE,112,0.0,-999.0,71,-99.99,,,0.00,Acu-Link.com,2013-06-29 19:45:00,
2013-06-29 16:01:00,73.4,61.3,29.57,NNE,22,3.7,-999.0,66,-99.99,,,0.00,Acu-Link.com,2013-06-29 20:01:00,
2013-06-29 16:16:00,73.8,60.8,29.57,NE,45,2.7,-999.0,64,-99.99,,,0.00,Acu-Link.com,2013-06-29 20:16:00,
2013-06-29 16:31:00,71.8,61.1,29.56,North,0,4.2,-999.0,69,-99.99,,,0.00,Acu-Link.com,2013-06-29 20:31:00,
2013-06-29 16:46:00,72.1,60.5,29.57,ESE,112,0.0,-999.0,67,-99.99,,,0.00,Acu-Link.com,2013-06-29 20:46:00,
2013-06-29 17:01:00,71.1,60.4,29.57,SE,135,1.1,-999.0,69,-99.99,,,0.00,Acu-Link.com,2013-06-29 21:01:00,
2013-06-29 17:16:00,72.9,61.7,29.57,NNE,22,3.7,-999.0,68,-99.99,,,0.00,Acu-Link.com,2013-06-29 21:16:00,
2013-06-29 17:31:00,74.5,62.4,29.57,East,90,8.9,-999.0,66,-99.99,,,0.00,Acu-Link.com,2013-06-29 21:31:00,
2013-06-29 17:47:00,73.0,61.0,29.58,NNE,22,4.7,-999.0,66,-99.99,,,0.00,Acu-Link.com,2013-06-29 21:47:00,
2013-06-29 18:02:00,75.2,60.8,29.57,NE,45,3.2,-999.0,61,-99.99,,,0.00,Acu-Link.com,2013-06-29 22:02:00,
2013-06-29 18:17:00,73.8,61.3,29.57,SE,135,2.7,-999.0,65,-99.99,,,0.00,Acu-Link.com,2013-06-29 22:17:00,
2013-06-29 18:49:00,73.2,61.6,29.58,NE,45,3.7,-999.0,67,-99.99,,,0.00,Acu-Link.com,2013-06-29 22:49:00,
2013-06-29 19:06:00,73.6,61.5,29.59,ESE,112,1.1,-999.0,66,-99.99,,,0.00,Acu-Link.com,2013-06-29 23:06:00,
2013-06-29 19:21:00,72.5,61.3,29.60,South,180,1.7,-999.0,68,-99.99,,,0.00,Acu-Link.com,2013-06-29 23:21:00,
2013-06-29 19:36:00,74.3,61.8,29.60,East,90,1.1,-999.0,65,-99.99,,,0.00,Acu-Link.com,2013-06-29 23:36:00,
2013-06-29 19:51:00,74.3,61.3,29.61,SE,135,2.2,-999.0,64,-99.99,,,0.00,Acu-Link.com,2013-06-29 23:51:00,
2013-06-29 20:06:00,74.3,60.9,29.62,ESE,112,1.1,-999.0,63,-99.99,,,0.00,Acu-Link.com,2013-06-30 00:06:00,
2013-06-29 20:21:00,73.0,60.5,29.62,ESE,112,1.7,-999.0,65,-99.99,,,0.00,Acu-Link.com,2013-06-30 00:21:00,
2013-06-29 20:36:00,71.4,59.4,29.62,NE,45,3.2,-999.0,66,-99.99,,,0.00,Acu-Link.com,2013-06-30 00:36:00,
2013-06-29 20:51:00,69.4,59.2,29.63,NE,45,2.2,-999.0,70,-99.99,,,0.00,Acu-Link.com,2013-06-30 00:51:00,
2013-06-29 21:06:00,68.2,58.4,29.63,NNE,22,0.0,-999.0,71,-99.99,,,0.00,Acu-Link.com,2013-06-30 01:06:00,
2013-06-29 21:22:00,67.6,59.0,29.64,NNW,337,0.0,-999.0,74,-99.99,,,0.00,Acu-Link.com,2013-06-30 01:22:00,
2013-06-29 21:37:00,67.1,58.9,29.64,NNE,22,0.0,-999.0,75,-99.99,,,0.00,Acu-Link.com,2013-06-30 01:37:00,
2013-06-29 21:52:00,66.2,58.4,29.64,NE,45,1.7,-999.0,76,-99.99,,,0.00,Acu-Link.com,2013-06-30 01:52:00,
2013-06-29 22:07:00,65.8,58.0,29.65,NNW,337,2.7,-999.0,76,-99.99,,,0.00,Acu-Link.com,2013-06-30 02:07:00,
2013-06-29 22:22:00,65.7,57.9,29.65,NNE,22,3.2,-999.0,76,-99.99,,,0.00,Acu-Link.com,2013-06-30 02:22:00,
2013-06-29 22:37:00,65.7,58.3,29.66,NW,315,0.0,-999.0,77,-99.99,,,0.00,Acu-Link.com,2013-06-30 02:37:00,
2013-06-29 22:52:00,65.1,58.1,29.66,NNE,22,3.2,-999.0,78,-99.99,,,0.00,Acu-Link.com,2013-06-30 02:52:00,
2013-06-29 23:08:00,64.9,58.2,29.66,North,0,4.7,-999.0,79,-99.99,,,0.00,Acu-Link.com,2013-06-30 03:08:00,
2013-06-29 23:23:00,64.6,58.3,29.67,NNE,22,3.7,-999.0,80,-99.99,,,0.00,Acu-Link.com,2013-06-30 03:23:00,
2013-06-29 23:38:00,64.2,58.2,29.67,NNE,22,3.2,-999.0,81,-99.99,,,0.00,Acu-Link.com,2013-06-30 03:38:00,
2013-06-29 23:54:00,63.9,58.3,29.67,NE,45,3.2,-999.0,82,-99.99,,,0.00,Acu-Link.com,2013-06-30 03:54:00,